Time;durP1;ratioP1;P1;durP2;ratioP2;P2;SDS_P1;SDS_P2;PMS_P1;PMS_P2;Temp;Humidity;BMP_temperature;BMP_pressure;BME280_temperature;BME280_humidity;BME280_pressure;Samples;Min_cycle;Max_cycle;Signal;HPM_P1;HPM_P2
2021/12/08 00:02:12;;;;;;;;;;;18.60;99.90;;;;;;5074683;28;19916;-78
2021/12/08 00:04:38;;;;;;;;;;;18.60;99.90;;;;;;5071816;28;19956;-79
2021/12/08 00:07:06;;;;;;;;;;;18.60;99.90;;;;;;5068931;28;20384;-79
2021/12/08 00:10:03;;;;;;;;;;;18.60;99.90;;;;;;5075246;28;19977;-78
2021/12/08 00:15:07;;;;;;;;;;;18.80;99.90;;;;;;5079794;28;20348;-79
2021/12/08 00:17:33;;;;;;;;;;;18.90;99.90;;;;;;5072734;28;20386;-78
2021/12/08 00:20:03;;;;;;;;;;;18.80;99.90;;;;;;5073830;28;19999;-79
2021/12/08 00:22:30;;;;;;;;;;;18.70;99.90;;;;;;5069890;28;20023;-77
2021/12/08 00:24:57;;;;;;;;;;;18.60;99.90;;;;;;5079256;28;19920;-78
2021/12/08 00:27:23;;;;;;;;;;;18.50;99.90;;;;;;5072465;28;19912;-78
2021/12/08 00:29:50;;;;;;;;;;;18.50;99.90;;;;;;5073433;28;19917;-78
2021/12/08 00:32:20;;;;;;;;;;;18.50;99.90;;;;;;5072644;28;19920;-79
2021/12/08 00:34:47;;;;;;;;;;;18.50;99.90;;;;;;5073628;28;19917;-78
2021/12/08 00:37:13;;;;;;;;;;;18.50;99.90;;;;;;5072688;28;20357;-78
2021/12/08 00:39:40;;;;;;;;;;;18.50;99.90;;;;;;5073072;28;19912;-78
2021/12/08 00:42:07;;;;;;;;;;;18.50;99.90;;;;;;5073067;28;20015;-78
2021/12/08 00:44:33;;;;;;;;;;;18.50;99.90;;;;;;5072754;28;20112;-78
2021/12/08 00:47:00;;;;;;;;;;;18.50;99.90;;;;;;5073066;28;20239;-79
2021/12/08 00:49:26;;;;;;;;;;;18.50;99.90;;;;;;5071082;28;20280;-78
2021/12/08 00:51:54;;;;;;;;;;;18.50;99.90;;;;;;5071434;28;20366;-77
2021/12/08 00:54:20;;;;;;;;;;;18.50;99.90;;;;;;5070824;28;19912;-78
2021/12/08 00:56:47;;;;;;;;;;;18.50;99.90;;;;;;5071140;28;20414;-78
2021/12/08 00:59:14;;;;;;;;;;;18.50;99.90;;;;;;5070933;28;19991;-79
2021/12/08 01:01:40;;;;;;;;;;;18.50;99.90;;;;;;5070667;28;20007;-78
2021/12/08 01:04:09;;;;;;;;;;;18.60;99.90;;;;;;5072385;28;19916;-79
2021/12/08 01:06:35;;;;;;;;;;;18.60;99.90;;;;;;5074391;28;19923;-79
2021/12/08 01:09:02;;;;;;;;;;;18.50;99.90;;;;;;5072677;28;20359;-79
2021/12/08 01:11:29;;;;;;;;;;;18.50;99.90;;;;;;5073390;28;19924;-79
2021/12/08 01:13:56;;;;;;;;;;;18.50;99.90;;;;;;5071524;28;20019;-79
2021/12/08 01:16:22;;;;;;;;;;;18.50;99.90;;;;;;5068324;28;19925;-79
2021/12/08 01:18:49;;;;;;;;;;;18.50;99.90;;;;;;5071560;28;19917;-80
2021/12/08 01:21:17;;;;;;;;;;;18.50;99.90;;;;;;5072335;28;20007;-80
2021/12/08 01:23:44;;;;;;;;;;;18.50;99.90;;;;;;5072077;28;19923;-79
2021/12/08 01:26:11;;;;;;;;;;;18.40;99.90;;;;;;5070992;28;19955;-78
2021/12/08 01:28:38;;;;;;;;;;;18.40;99.90;;;;;;5072196;28;19926;-78
2021/12/08 01:31:05;;;;;;;;;;;18.40;99.90;;;;;;5071908;28;20381;-78
2021/12/08 01:33:34;;;;;;;;;;;18.40;99.90;;;;;;5072106;28;20417;-78
2021/12/08 01:36:02;;;;;;;;;;;18.40;99.90;;;;;;5071210;28;19916;-78
2021/12/08 01:38:29;;;;;;;;;;;18.50;99.90;;;;;;5072269;28;20289;-77
2021/12/08 01:40:55;;;;;;;;;;;18.40;99.90;;;;;;5071674;28;20026;-78
2021/12/08 01:43:40;;;;;;;;;;;18.40;99.90;;;;;;5072376;28;20262;-78
2021/12/08 01:46:08;;;;;;;;;;;18.40;99.90;;;;;;5069985;28;19978;-79
2021/12/08 01:48:36;;;;;;;;;;;18.40;99.90;;;;;;5068901;28;20385;-78
2021/12/08 01:51:10;;;;;;;;;;;18.30;99.90;;;;;;5071924;28;19926;-79
2021/12/08 01:53:40;;;;;;;;;;;18.30;99.90;;;;;;5072089;28;20278;-79
2021/12/08 01:56:08;;;;;;;;;;;18.30;99.90;;;;;;5070767;28;19946;-78
2021/12/08 01:58:34;;;;;;;;;;;18.30;99.90;;;;;;5072861;28;20271;-77
2021/12/08 02:01:03;;;;;;;;;;;18.20;99.90;;;;;;5072012;28;19919;-78
2021/12/08 02:03:30;;;;;;;;;;;18.30;99.90;;;;;;5071697;28;19918;-78
2021/12/08 02:05:57;;;;;;;;;;;18.30;99.90;;;;;;5072328;28;19912;-79
2021/12/08 02:08:24;;;;;;;;;;;18.30;99.90;;;;;;5071725;28;19921;-78
2021/12/08 02:10:51;;;;;;;;;;;18.40;99.90;;;;;;5070633;28;19989;-77
2021/12/08 02:13:18;;;;;;;;;;;18.40;99.90;;;;;;5070290;28;19912;-78
2021/12/08 02:15:45;;;;;;;;;;;18.40;99.90;;;;;;5072656;28;19986;-78
2021/12/08 02:18:14;;;;;;;;;;;18.40;99.90;;;;;;5076768;28;19916;-78
2021/12/08 02:20:42;;;;;;;;;;;18.30;99.90;;;;;;5075165;28;19912;-78
2021/12/08 02:23:08;;;;;;;;;;;18.20;99.90;;;;;;5071493;28;19942;-78
2021/12/08 02:25:36;;;;;;;;;;;18.20;99.90;;;;;;5071894;28;19909;-78
2021/12/08 02:28:03;;;;;;;;;;;18.30;99.90;;;;;;5070932;28;20015;-78
2021/12/08 02:30:43;;;;;;;;;;;18.30;99.90;;;;;;5076738;28;19913;-78
2021/12/08 02:47:16;;;;;;;;;;;18.50;99.90;;;;;;5071733;28;19919;-79
2021/12/08 02:49:44;;;;;;;;;;;18.50;99.90;;;;;;5070365;28;19917;-78
2021/12/08 02:52:12;;;;;;;;;;;18.60;99.90;;;;;;5071253;28;19967;-78
2021/12/08 02:54:43;;;;;;;;;;;18.50;99.90;;;;;;5070266;28;19912;-78
2021/12/08 02:57:11;;;;;;;;;;;18.40;99.90;;;;;;5070230;28;19942;-79
2021/12/08 02:59:38;;;;;;;;;;;18.50;99.90;;;;;;5070474;28;19966;-79
2021/12/08 03:02:05;;;;;;;;;;;18.50;99.90;;;;;;5070357;28;20007;-78
2021/12/08 03:04:32;;;;;;;;;;;18.40;99.90;;;;;;5069758;28;19974;-78
2021/12/08 03:06:59;;;;;;;;;;;18.50;99.90;;;;;;5080111;28;19916;-78
2021/12/08 03:09:28;;;;;;;;;;;18.50;99.90;;;;;;5073053;28;19931;-78
2021/12/08 03:11:57;;;;;;;;;;;18.60;99.90;;;;;;5077837;28;20236;-78
2021/12/08 03:14:25;;;;;;;;;;;18.60;99.90;;;;;;5072227;28;20003;-77
2021/12/08 03:16:55;;;;;;;;;;;18.60;99.90;;;;;;5070867;28;19935;-78
2021/12/08 03:19:24;;;;;;;;;;;18.70;99.90;;;;;;5070505;28;19920;-77
2021/12/08 03:21:51;;;;;;;;;;;18.70;99.90;;;;;;5072842;28;19912;-77
2021/12/08 03:29:42;;;;;;;;;;;18.40;99.90;;;;;;5070519;28;19916;-78
2021/12/08 03:32:14;;;;;;;;;;;18.40;99.90;;;;;;5076360;28;19920;-78
2021/12/08 03:34:49;;;;;;;;;;;18.40;99.90;;;;;;5071354;28;20325;-78
2021/12/08 03:37:16;;;;;;;;;;;18.40;99.90;;;;;;5076978;28;20143;-78
2021/12/08 03:39:42;;;;;;;;;;;18.40;99.90;;;;;;5070108;28;19912;-78
2021/12/08 03:42:10;;;;;;;;;;;18.40;99.90;;;;;;5067604;28;20362;-78
2021/12/08 03:44:37;;;;;;;;;;;18.40;99.90;;;;;;5068514;28;20751;-78
2021/12/08 03:47:12;;;;;;;;;;;18.50;99.90;;;;;;5076203;28;19919;-78
2021/12/08 03:49:39;;;;;;;;;;;18.50;99.90;;;;;;5070224;28;19991;-78
2021/12/08 03:52:06;;;;;;;;;;;18.50;99.90;;;;;;5073593;28;19916;-78
2021/12/08 03:54:32;;;;;;;;;;;18.50;99.90;;;;;;5070820;28;20050;-78
2021/12/08 03:56:59;;;;;;;;;;;18.50;99.90;;;;;;5069995;28;20841;-78
2021/12/08 03:59:26;;;;;;;;;;;18.40;99.90;;;;;;5069643;28;19971;-78
2021/12/08 04:01:53;;;;;;;;;;;18.30;99.90;;;;;;5073509;28;20306;-77
2021/12/08 04:04:25;;;;;;;;;;;18.30;99.90;;;;;;5067470;28;19916;-78
2021/12/08 04:06:52;;;;;;;;;;;18.20;99.90;;;;;;5069816;28;19917;-78
2021/12/08 04:09:35;;;;;;;;;;;18.10;99.90;;;;;;5071483;28;20005;-78
2021/12/08 04:12:02;;;;;;;;;;;18.20;99.90;;;;;;5065952;28;19970;-78
2021/12/08 04:14:30;;;;;;;;;;;18.20;99.90;;;;;;5071523;28;19928;-79
2021/12/08 04:17:00;;;;;;;;;;;18.20;99.90;;;;;;5069681;28;20019;-79
2021/12/08 04:19:27;;;;;;;;;;;18.20;99.90;;;;;;5080449;28;19923;-79
2021/12/08 04:21:55;;;;;;;;;;;18.20;99.90;;;;;;5069820;28;19948;-79
2021/12/08 04:24:23;;;;;;;;;;;18.10;99.90;;;;;;5069349;28;19913;-77
2021/12/08 04:27:04;;;;;;;;;;;18.00;99.90;;;;;;5067673;28;19913;-78
2021/12/08 04:29:33;;;;;;;;;;;18.10;99.90;;;;;;5067689;28;19920;-78
2021/12/08 04:32:00;;;;;;;;;;;18.00;99.90;;;;;;5060405;28;19912;-78
2021/12/08 04:34:32;;;;;;;;;;;18.00;99.90;;;;;;5063753;28;19966;-79
2021/12/08 04:37:02;;;;;;;;;;;18.00;99.90;;;;;;5068540;28;19920;-79
2021/12/08 04:39:47;;;;;;;;;;;18.00;99.90;;;;;;5067827;28;19948;-78
2021/12/08 04:42:18;;;;;;;;;;;18.00;99.90;;;;;;5068497;28;19912;-79
2021/12/08 04:44:57;;;;;;;;;;;17.90;99.90;;;;;;5067645;28;19917;-78
2021/12/08 04:47:34;;;;;;;;;;;17.90;99.90;;;;;;5062947;28;19989;-78
2021/12/08 04:50:21;;;;;;;;;;;17.90;99.90;;;;;;5053093;28;19967;-78
2021/12/08 04:53:06;;;;;;;;;;;17.90;99.90;;;;;;5085747;28;20003;-79
2021/12/08 05:01:18;;;;;;;;;;;17.80;99.90;;;;;;5073227;28;19927;-78
2021/12/08 05:07:02;;;;;;;;;;;17.80;99.90;;;;;;5056739;28;19920;-78
2021/12/08 05:09:30;;;;;;;;;;;17.80;99.90;;;;;;5056472;28;20372;-78
2021/12/08 05:12:04;;;;;;;;;;;17.80;99.90;;;;;;5054711;28;19913;-78
2021/12/08 05:14:34;;;;;;;;;;;17.70;99.90;;;;;;5056937;28;20395;-78
2021/12/08 05:17:12;;;;;;;;;;;17.70;99.90;;;;;;5062844;28;20275;-78
2021/12/08 05:19:40;;;;;;;;;;;17.60;99.90;;;;;;5072911;28;19920;-79
2021/12/08 05:22:12;;;;;;;;;;;17.50;99.90;;;;;;5065245;28;19927;-77
2021/12/08 05:24:40;;;;;;;;;;;17.30;99.90;;;;;;5069215;28;19912;-77
2021/12/08 05:27:12;;;;;;;;;;;17.20;99.90;;;;;;5073211;28;19913;-76
2021/12/08 05:29:41;;;;;;;;;;;17.20;99.90;;;;;;5072637;28;19928;-77
2021/12/08 05:32:08;;;;;;;;;;;17.10;99.90;;;;;;5072715;28;19920;-78
2021/12/08 05:34:35;;;;;;;;;;;17.10;99.90;;;;;;5072854;28;19934;-78
2021/12/08 05:37:03;;;;;;;;;;;17.10;99.90;;;;;;5061561;28;19925;-78
2021/12/08 05:39:30;;;;;;;;;;;17.10;99.90;;;;;;5072200;28;19948;-78
2021/12/08 05:42:00;;;;;;;;;;;17.10;99.90;;;;;;5072400;28;19916;-78
2021/12/08 05:44:28;;;;;;;;;;;17.10;99.90;;;;;;5060898;28;19919;-78
2021/12/08 05:46:55;;;;;;;;;;;17.10;99.90;;;;;;5056474;28;20426;-78
2021/12/08 05:49:23;;;;;;;;;;;17.10;99.90;;;;;;5066306;28;19913;-78
2021/12/08 05:51:51;;;;;;;;;;;17.10;99.90;;;;;;5069288;28;19920;-77
2021/12/08 05:54:21;;;;;;;;;;;17.10;99.90;;;;;;5070875;28;19919;-77
2021/12/08 05:56:49;;;;;;;;;;;17.10;99.90;;;;;;5058611;28;19921;-78
2021/12/08 05:59:16;;;;;;;;;;;17.10;99.90;;;;;;5070546;28;19921;-78
2021/12/08 06:01:45;;;;;;;;;;;17.10;99.90;;;;;;5070185;28;19978;-79
2021/12/08 06:04:12;;;;;;;;;;;17.10;99.90;;;;;;5068923;28;19958;-78
2021/12/08 06:06:40;;;;;;;;;;;17.00;99.90;;;;;;5069913;28;20023;-78
2021/12/08 06:09:08;;;;;;;;;;;17.00;99.90;;;;;;5070306;28;20345;-77
2021/12/08 06:11:35;;;;;;;;;;;16.90;99.90;;;;;;5070703;28;20507;-77
2021/12/08 06:14:03;;;;;;;;;;;16.90;99.90;;;;;;5070432;28;19917;-77
2021/12/08 06:16:31;;;;;;;;;;;16.80;99.90;;;;;;5069921;28;19939;-77
2021/12/08 06:18:58;;;;;;;;;;;16.80;99.90;;;;;;5070089;28;20381;-77
2021/12/08 06:21:30;;;;;;;;;;;16.70;99.90;;;;;;5069055;28;20289;-78
2021/12/08 06:23:57;;;;;;;;;;;16.70;99.90;;;;;;5070177;28;19927;-79
2021/12/08 06:26:25;;;;;;;;;;;16.70;99.90;;;;;;5071169;28;19966;-79
2021/12/08 06:28:53;;;;;;;;;;;16.60;99.90;;;;;;5058894;28;19926;-78
2021/12/08 06:31:21;;;;;;;;;;;16.60;99.90;;;;;;5069446;28;19943;-79
2021/12/08 06:33:48;;;;;;;;;;;16.50;99.90;;;;;;5069725;28;19996;-78
2021/12/08 06:36:22;;;;;;;;;;;16.50;99.90;;;;;;5069598;28;19916;-77
2021/12/08 06:38:50;;;;;;;;;;;16.50;99.90;;;;;;5069062;28;20344;-78
2021/12/08 06:41:19;;;;;;;;;;;16.40;99.90;;;;;;5070655;28;20387;-79
2021/12/08 06:43:48;;;;;;;;;;;16.50;99.90;;;;;;5052074;28;19921;-79
2021/12/08 06:46:16;;;;;;;;;;;16.50;99.90;;;;;;5052297;28;19970;-78
2021/12/08 06:48:44;;;;;;;;;;;16.50;99.90;;;;;;5064021;28;19912;-78
2021/12/08 06:51:13;;;;;;;;;;;16.40;99.90;;;;;;5052234;28;19966;-79
2021/12/08 06:53:41;;;;;;;;;;;16.50;99.90;;;;;;5057905;28;19923;-76
2021/12/08 06:56:10;;;;;;;;;;;16.60;99.90;;;;;;5069131;28;19924;-77
2021/12/08 06:58:39;;;;;;;;;;;16.70;99.90;;;;;;5069014;28;19946;-76
2021/12/08 07:09:21;;;;;;;;;;;16.70;99.90;;;;;;5071868;28;20353;-79
2021/12/08 07:11:49;;;;;;;;;;;16.70;99.90;;;;;;5067119;28;20267;-77
2021/12/08 07:14:16;;;;;;;;;;;16.80;99.90;;;;;;5069212;28;20447;-77
2021/12/08 07:16:47;;;;;;;;;;;16.80;99.90;;;;;;5054134;28;20432;-77
2021/12/08 07:19:23;;;;;;;;;;;16.70;99.90;;;;;;5060100;28;19912;-78
2021/12/08 07:21:50;;;;;;;;;;;16.70;99.90;;;;;;5068365;28;20043;-76
2021/12/08 07:24:28;;;;;;;;;;;16.60;99.90;;;;;;5068599;28;19962;-77
2021/12/08 07:26:57;;;;;;;;;;;16.70;99.90;;;;;;5101209;28;19924;-76
2021/12/08 07:29:26;;;;;;;;;;;16.70;99.90;;;;;;5069223;28;20017;-79
2021/12/08 07:32:05;;;;;;;;;;;16.60;99.90;;;;;;5068726;28;19917;-77
2021/12/08 07:34:32;;;;;;;;;;;16.70;99.90;;;;;;5069070;28;20410;-76
2021/12/08 07:37:01;;;;;;;;;;;16.80;99.90;;;;;;5068054;28;20379;-78
2021/12/08 07:39:29;;;;;;;;;;;16.80;99.90;;;;;;5068962;28;20445;-78
2021/12/08 07:42:01;;;;;;;;;;;16.80;99.90;;;;;;5067086;28;20351;-77
2021/12/08 07:44:28;;;;;;;;;;;16.70;99.90;;;;;;5069035;28;20331;-78
2021/12/08 07:46:58;;;;;;;;;;;16.60;99.90;;;;;;5068491;28;19913;-77
2021/12/08 07:49:27;;;;;;;;;;;16.60;99.90;;;;;;5068892;28;19977;-78
2021/12/08 07:52:00;;;;;;;;;;;16.60;99.90;;;;;;5068017;28;19916;-78
2021/12/08 07:54:28;;;;;;;;;;;16.60;99.90;;;;;;5068841;28;19948;-77
2021/12/08 07:56:56;;;;;;;;;;;16.60;99.90;;;;;;5068182;28;20353;-78
2021/12/08 07:59:23;;;;;;;;;;;16.50;99.90;;;;;;5068938;28;20359;-77
2021/12/08 08:01:52;;;;;;;;;;;16.50;99.90;;;;;;5066581;28;19920;-78
2021/12/08 08:04:20;;;;;;;;;;;16.60;99.90;;;;;;5068274;28;19912;-78
2021/12/08 08:06:49;;;;;;;;;;;16.70;99.90;;;;;;5070297;28;20007;-79
2021/12/08 08:09:18;;;;;;;;;;;16.70;99.90;;;;;;5070689;28;19920;-77
2021/12/08 08:11:48;;;;;;;;;;;16.70;99.90;;;;;;5070226;28;19931;-77
2021/12/08 08:14:19;;;;;;;;;;;16.70;99.90;;;;;;5070845;28;19913;-79
2021/12/08 08:16:50;;;;;;;;;;;16.60;99.90;;;;;;5070275;28;20428;-77
2021/12/08 08:19:19;;;;;;;;;;;16.60;99.90;;;;;;5062517;28;20006;-78
2021/12/08 08:21:48;;;;;;;;;;;16.60;99.90;;;;;;5054976;28;19924;-78
2021/12/08 08:24:14;;;;;;;;;;;16.60;99.90;;;;;;5069425;28;19916;-78
2021/12/08 08:26:42;;;;;;;;;;;16.60;99.90;;;;;;5069990;28;19916;-78
2021/12/08 08:29:09;;;;;;;;;;;16.70;99.90;;;;;;5073802;28;19913;-79
2021/12/08 08:31:45;;;;;;;;;;;16.70;99.90;;;;;;5073899;28;19923;-79
2021/12/08 08:34:12;;;;;;;;;;;16.70;99.90;;;;;;5063695;28;20011;-79
2021/12/08 08:36:41;;;;;;;;;;;16.70;99.90;;;;;;5073581;28;19916;-79
2021/12/08 08:39:12;;;;;;;;;;;16.60;99.90;;;;;;5062848;28;20015;-78
2021/12/08 08:41:43;;;;;;;;;;;16.70;99.90;;;;;;5073679;28;20355;-78
2021/12/08 08:44:16;;;;;;;;;;;16.70;99.90;;;;;;5062971;28;19919;-79
2021/12/08 08:46:45;;;;;;;;;;;16.70;99.90;;;;;;5073729;28;20378;-79
2021/12/08 08:49:14;;;;;;;;;;;16.60;99.90;;;;;;5073231;28;20282;-78
2021/12/08 08:51:43;;;;;;;;;;;16.60;99.90;;;;;;5072780;28;19912;-78
2021/12/08 08:54:13;;;;;;;;;;;16.60;99.90;;;;;;5062021;28;19913;-79
2021/12/08 08:56:42;;;;;;;;;;;16.60;99.90;;;;;;5073377;28;20050;-79
2021/12/08 08:59:20;;;;;;;;;;;16.60;99.90;;;;;;5062309;28;20286;-80
2021/12/08 09:01:49;;;;;;;;;;;16.60;99.90;;;;;;5068727;28;20315;-78
2021/12/08 09:04:35;;;;;;;;;;;16.60;99.90;;;;;;5072236;28;19912;-80
2021/12/08 09:07:08;;;;;;;;;;;16.60;99.90;;;;;;5072295;28;19988;-80
2021/12/08 09:09:36;;;;;;;;;;;16.60;99.90;;;;;;5073012;28;19927;-80
2021/12/08 09:12:21;;;;;;;;;;;16.60;99.90;;;;;;5072137;28;19912;-80
2021/12/08 09:14:56;;;;;;;;;;;16.60;99.90;;;;;;5072933;28;19956;-79
2021/12/08 09:17:31;;;;;;;;;;;16.60;99.90;;;;;;5073348;28;20286;-80
2021/12/08 09:20:16;;;;;;;;;;;16.60;99.90;;;;;;5073362;28;19912;-80
2021/12/08 09:22:55;;;;;;;;;;;16.70;99.90;;;;;;5063148;28;19913;-79
2021/12/08 09:25:42;;;;;;;;;;;16.70;99.90;;;;;;5072827;28;20321;-79
2021/12/08 09:28:15;;;;;;;;;;;16.70;99.90;;;;;;5073102;28;19913;-81
2021/12/08 09:30:45;;;;;;;;;;;16.70;99.90;;;;;;5073160;28;19912;-80
2021/12/08 09:33:16;;;;;;;;;;;16.70;99.90;;;;;;5073262;28;20281;-79
2021/12/08 09:35:46;;;;;;;;;;;16.70;99.90;;;;;;5072901;28;19912;-81
2021/12/08 09:38:17;;;;;;;;;;;16.80;99.90;;;;;;5073429;28;20438;-80
2021/12/08 09:40:48;;;;;;;;;;;16.80;99.90;;;;;;5072267;28;19916;-80
2021/12/08 09:43:21;;;;;;;;;;;16.80;99.90;;;;;;5073237;28;19919;-81
2021/12/08 09:45:54;;;;;;;;;;;16.80;99.90;;;;;;5071592;28;19932;-81
2021/12/08 09:48:26;;;;;;;;;;;16.60;99.90;;;;;;5072861;28;20351;-80
2021/12/08 09:50:54;;;;;;;;;;;16.60;99.90;;;;;;5073295;28;20370;-80
2021/12/08 09:53:21;;;;;;;;;;;16.60;99.90;;;;;;5072830;28;19926;-80
2021/12/08 09:55:49;;;;;;;;;;;16.60;99.90;;;;;;5071314;28;19944;-81
2021/12/08 09:58:16;;;;;;;;;;;16.60;99.90;;;;;;5073268;28;20015;-81
2021/12/08 10:00:43;;;;;;;;;;;16.60;99.90;;;;;;5056062;28;19913;-79
2021/12/08 10:03:13;;;;;;;;;;;16.50;99.90;;;;;;5066139;28;19919;-80
2021/12/08 10:05:41;;;;;;;;;;;16.50;99.90;;;;;;5072747;28;20363;-80
2021/12/08 10:08:08;;;;;;;;;;;16.50;99.90;;;;;;5061197;28;19912;-79
2021/12/08 10:10:37;;;;;;;;;;;16.50;99.90;;;;;;5104696;28;20347;-80
2021/12/08 10:13:05;;;;;;;;;;;16.50;99.90;;;;;;5072857;28;20367;-80
2021/12/08 10:15:31;;;;;;;;;;;16.50;99.90;;;;;;5072196;28;19924;-79
2021/12/08 10:17:58;;;;;;;;;;;16.50;99.90;;;;;;5072643;28;19921;-82
2021/12/08 10:20:31;;;;;;;;;;;16.50;99.90;;;;;;5071997;28;19920;-81
2021/12/08 10:23:10;;;;;;;;;;;16.60;99.90;;;;;;5071902;28;19999;-81
2021/12/08 10:25:38;;;;;;;;;;;16.60;99.90;;;;;;5072229;28;19916;-81
2021/12/08 10:28:05;;;;;;;;;;;16.60;99.90;;;;;;5072394;28;19912;-81
2021/12/08 10:30:34;;;;;;;;;;;16.50;99.90;;;;;;5072063;28;19913;-80
2021/12/08 10:33:07;;;;;;;;;;;16.50;99.90;;;;;;5072504;28;19919;-82
2021/12/08 10:35:48;;;;;;;;;;;16.50;99.90;;;;;;5071979;28;21090;-81
2021/12/08 10:38:16;;;;;;;;;;;16.50;99.90;;;;;;5072199;28;19920;-81
2021/12/08 10:41:03;;;;;;;;;;;16.50;99.90;;;;;;5072245;28;19958;-82
2021/12/08 10:43:29;;;;;;;;;;;16.50;99.90;;;;;;5071679;28;20367;-82
2021/12/08 10:46:13;;;;;;;;;;;16.50;99.90;;;;;;5071125;28;19977;-81
2021/12/08 10:48:45;;;;;;;;;;;16.50;99.90;;;;;;5071407;28;19916;-83
2021/12/08 10:54:25;;;;;;;;;;;16.50;99.90;;;;;;5070359;28;19999;-79
2021/12/08 10:56:57;;;;;;;;;;;16.60;99.90;;;;;;5071649;28;20001;-79
2021/12/08 10:59:28;;;;;;;;;;;16.60;99.90;;;;;;5070212;28;19954;-79
2021/12/08 11:01:59;;;;;;;;;;;16.60;99.90;;;;;;5068822;28;20012;-79
2021/12/08 11:04:30;;;;;;;;;;;16.60;99.90;;;;;;5071481;28;19995;-80
2021/12/08 11:07:09;;;;;;;;;;;16.60;99.90;;;;;;5071031;28;19924;-81
2021/12/08 11:09:41;;;;;;;;;;;16.60;99.90;;;;;;5071314;28;19924;-79
2021/12/08 11:12:08;;;;;;;;;;;16.50;99.90;;;;;;5070569;28;20009;-78
2021/12/08 11:14:49;;;;;;;;;;;16.60;99.90;;;;;;5071592;28;19919;-78
2021/12/08 11:17:26;;;;;;;;;;;16.60;99.90;;;;;;5071036;28;19940;-79
2021/12/08 11:20:12;;;;;;;;;;;16.60;99.90;;;;;;5071398;28;19912;-78
2021/12/08 11:22:39;;;;;;;;;;;16.60;99.90;;;;;;5070613;28;19969;-78
2021/12/08 11:25:07;;;;;;;;;;;16.60;99.90;;;;;;5071415;28;19967;-78
2021/12/08 11:27:34;;;;;;;;;;;16.60;99.90;;;;;;5070617;28;19912;-77
2021/12/08 11:30:11;;;;;;;;;;;16.50;99.90;;;;;;5060254;28;19920;-79
2021/12/08 11:32:38;;;;;;;;;;;16.50;99.90;;;;;;5054344;28;19913;-79
2021/12/08 11:35:05;;;;;;;;;;;16.60;99.90;;;;;;5053129;28;19913;-78
2021/12/08 11:37:35;;;;;;;;;;;16.60;99.90;;;;;;5054462;28;20011;-80
2021/12/08 11:40:14;;;;;;;;;;;16.60;99.90;;;;;;5063682;28;19919;-78
2021/12/08 11:42:40;;;;;;;;;;;16.60;99.90;;;;;;5070698;28;20003;-79
2021/12/08 11:45:12;;;;;;;;;;;16.60;99.90;;;;;;5069840;28;19997;-78
2021/12/08 11:47:40;;;;;;;;;;;16.60;99.90;;;;;;5070620;28;19919;-78
2021/12/08 11:50:10;;;;;;;;;;;16.60;99.90;;;;;;5070799;28;20371;-79
2021/12/08 11:52:37;;;;;;;;;;;16.60;99.90;;;;;;5070868;28;19913;-80
2021/12/08 11:55:09;;;;;;;;;;;16.60;99.90;;;;;;5060577;28;19970;-78
2021/12/08 11:57:40;;;;;;;;;;;16.60;99.90;;;;;;5066209;28;19921;-78
2021/12/08 12:00:21;;;;;;;;;;;16.70;99.90;;;;;;5060889;28;20416;-79
2021/12/08 12:02:58;;;;;;;;;;;16.60;99.90;;;;;;5071702;28;20359;-79
2021/12/08 12:05:29;;;;;;;;;;;16.50;99.90;;;;;;5074847;28;19919;-78
2021/12/08 12:07:56;;;;;;;;;;;16.50;99.90;;;;;;5063324;28;20374;-77
2021/12/08 12:10:25;;;;;;;;;;;16.50;99.90;;;;;;5075081;28;19966;-77
2021/12/08 12:12:51;;;;;;;;;;;16.40;99.90;;;;;;5074958;28;19919;-78
2021/12/08 12:15:19;;;;;;;;;;;16.40;99.90;;;;;;5074667;28;20367;-77
2021/12/08 12:17:49;;;;;;;;;;;16.50;99.90;;;;;;5074276;28;19974;-78
2021/12/08 12:20:25;;;;;;;;;;;16.40;99.90;;;;;;5074764;28;19912;-78
2021/12/08 12:23:10;;;;;;;;;;;16.40;99.90;;;;;;5074468;28;20266;-78
2021/12/08 12:25:43;;;;;;;;;;;16.30;99.90;;;;;;5074268;28;20416;-78
2021/12/08 12:28:27;;;;;;;;;;;16.40;99.90;;;;;;5074574;28;19913;-78
2021/12/08 12:31:17;;;;;;;;;;;16.30;99.90;;;;;;5059082;28;19917;-78
2021/12/08 12:33:45;;;;;;;;;;;16.40;99.90;;;;;;5056928;28;20592;-78
2021/12/08 12:36:19;;;;;;;;;;;16.40;99.90;;;;;;5073644;28;19913;-78
2021/12/08 12:38:47;;;;;;;;;;;16.40;99.90;;;;;;5074184;28;20010;-77
2021/12/08 12:41:27;;;;;;;;;;;16.40;99.90;;;;;;5056458;28;19927;-78
2021/12/08 12:44:12;;;;;;;;;;;16.40;99.90;;;;;;5057539;28;20279;-78
2021/12/08 12:46:58;;;;;;;;;;;16.40;99.90;;;;;;5074226;28;19912;-78
2021/12/08 12:49:25;;;;;;;;;;;16.30;99.90;;;;;;5073561;28;19912;-78
2021/12/08 12:51:59;;;;;;;;;;;16.30;99.90;;;;;;5073791;28;19970;-78
2021/12/08 12:54:26;;;;;;;;;;;16.40;99.90;;;;;;5072571;28;19913;-78
2021/12/08 12:56:54;;;;;;;;;;;16.40;99.90;;;;;;5074329;28;19927;-78
2021/12/08 12:59:22;;;;;;;;;;;16.40;99.90;;;;;;5072530;28;19924;-78
2021/12/08 13:02:07;;;;;;;;;;;16.40;99.90;;;;;;5074208;28;19912;-78
2021/12/08 13:04:35;;;;;;;;;;;16.40;99.90;;;;;;5074169;28;19920;-78
2021/12/08 13:07:03;;;;;;;;;;;16.40;99.90;;;;;;5074195;28;19913;-79
2021/12/08 13:09:32;;;;;;;;;;;16.40;99.90;;;;;;5072074;28;19928;-78
2021/12/08 13:12:11;;;;;;;;;;;16.40;99.90;;;;;;5073670;28;19916;-78
2021/12/08 13:14:38;;;;;;;;;;;16.40;99.90;;;;;;5061835;28;19912;-78
2021/12/08 13:17:10;;;;;;;;;;;16.40;99.90;;;;;;5073967;28;19924;-78
2021/12/08 13:19:41;;;;;;;;;;;16.40;99.90;;;;;;5072369;28;20379;-77
2021/12/08 13:22:08;;;;;;;;;;;16.30;99.90;;;;;;5073679;28;20015;-79
2021/12/08 13:24:38;;;;;;;;;;;16.40;99.90;;;;;;5073271;28;19924;-79
2021/12/08 13:27:06;;;;;;;;;;;16.40;99.90;;;;;;5071021;28;19919;-77
2021/12/08 13:29:39;;;;;;;;;;;16.40;99.90;;;;;;5073026;28;20612;-78
2021/12/08 13:32:16;;;;;;;;;;;16.50;99.90;;;;;;5082558;28;19942;-78
2021/12/08 13:34:44;;;;;;;;;;;16.50;99.90;;;;;;5071996;28;19913;-78
2021/12/08 13:37:22;;;;;;;;;;;16.50;99.90;;;;;;5072868;28;20015;-78
2021/12/08 13:39:50;;;;;;;;;;;16.50;99.90;;;;;;5061921;28;20432;-78
2021/12/08 13:42:17;;;;;;;;;;;16.50;99.90;;;;;;5072743;28;19916;-78
2021/12/08 13:44:53;;;;;;;;;;;16.50;99.90;;;;;;5072822;28;20006;-78
2021/12/08 13:47:26;;;;;;;;;;;16.50;99.90;;;;;;5072540;28;19919;-77
2021/12/08 13:50:12;;;;;;;;;;;16.50;99.90;;;;;;5069501;28;19913;-79
2021/12/08 13:52:41;;;;;;;;;;;16.50;99.90;;;;;;5072529;28;19912;-78
2021/12/08 13:55:16;;;;;;;;;;;16.50;99.90;;;;;;5072966;28;20413;-78
2021/12/08 13:57:47;;;;;;;;;;;16.50;99.90;;;;;;5072235;28;19927;-79
2021/12/08 14:00:17;;;;;;;;;;;16.50;99.90;;;;;;5072968;28;19935;-79
2021/12/08 14:02:47;;;;;;;;;;;16.40;99.90;;;;;;5072325;28;19966;-78
2021/12/08 14:05:16;;;;;;;;;;;16.40;99.90;;;;;;5072249;28;19913;-78
2021/12/08 14:07:45;;;;;;;;;;;16.40;99.90;;;;;;5071720;28;19920;-78
2021/12/08 14:10:19;;;;;;;;;;;16.40;99.90;;;;;;5072473;28;19927;-78
2021/12/08 14:12:50;;;;;;;;;;;16.30;99.90;;;;;;5072058;28;19919;-78
2021/12/08 14:15:18;;;;;;;;;;;16.30;99.90;;;;;;5072643;28;19923;-78
2021/12/08 14:17:46;;;;;;;;;;;16.30;99.90;;;;;;5072014;28;20290;-78
2021/12/08 14:20:30;;;;;;;;;;;16.20;99.90;;;;;;5072300;28;19913;-78
2021/12/08 14:22:57;;;;;;;;;;;16.20;99.90;;;;;;5071529;28;19917;-78
2021/12/08 14:25:34;;;;;;;;;;;16.10;99.90;;;;;;5071696;28;19939;-77
2021/12/08 14:28:01;;;;;;;;;;;16.10;99.90;;;;;;5071706;28;19993;-77
2021/12/08 14:30:28;;;;;;;;;;;16.00;99.90;;;;;;5072259;28;19989;-78
2021/12/08 14:33:04;;;;;;;;;;;16.00;99.90;;;;;;5071449;28;19912;-78
2021/12/08 14:35:31;;;;;;;;;;;16.00;99.90;;;;;;5065417;28;19919;-78
2021/12/08 14:38:04;;;;;;;;;;;16.00;99.90;;;;;;5071193;28;19981;-77
2021/12/08 14:40:30;;;;;;;;;;;16.00;99.90;;;;;;5072112;28;20331;-78
2021/12/08 14:42:57;;;;;;;;;;;16.00;99.90;;;;;;5071482;28;19944;-77
2021/12/08 14:45:28;;;;;;;;;;;15.90;99.90;;;;;;5072078;28;19958;-78
2021/12/08 14:47:54;;;;;;;;;;;15.90;99.90;;;;;;5071612;28;19917;-78
2021/12/08 14:50:24;;;;;;;;;;;15.90;99.90;;;;;;5072033;28;19916;-78
2021/12/08 14:52:51;;;;;;;;;;;15.90;99.90;;;;;;5071603;28;20358;-78
2021/12/08 14:55:23;;;;;;;;;;;15.90;99.90;;;;;;5071933;28;20293;-78
2021/12/08 14:57:53;;;;;;;;;;;15.90;99.90;;;;;;5059093;28;19920;-79
2021/12/08 15:00:22;;;;;;;;;;;15.90;99.90;;;;;;5071733;28;19919;-77
2021/12/08 15:03:06;;;;;;;;;;;15.90;99.90;;;;;;5071132;28;19920;-77
2021/12/08 15:05:33;;;;;;;;;;;15.90;99.90;;;;;;5071109;28;19919;-77
2021/12/08 15:08:13;;;;;;;;;;;16.00;99.90;;;;;;5070797;28;19963;-77
2021/12/08 15:10:40;;;;;;;;;;;16.10;99.90;;;;;;5071480;28;19912;-77
2021/12/08 15:13:08;;;;;;;;;;;16.20;99.90;;;;;;5066175;28;19940;-77
2021/12/08 15:15:35;;;;;;;;;;;16.10;99.90;;;;;;5053391;28;19919;-78
2021/12/08 15:18:03;;;;;;;;;;;16.10;99.90;;;;;;5058775;28;20294;-77